sensor_id;sensor_type;location;lat;lon;timestamp;P1;durP1;ratioP1;P2;durP2;ratioP2
82526;SDS011;72188;41.974;21.456;2023-08-30T00:02:11;16.17;;;9.85;;
82526;SDS011;72188;41.974;21.456;2023-08-30T00:04:37;21.58;;;9.93;;
82526;SDS011;72188;41.974;21.456;2023-08-30T00:07:03;15.18;;;9.88;;
82526;SDS011;72188;41.974;21.456;2023-08-30T00:09:30;13.68;;;9.90;;
82526;SDS011;72188;41.974;21.456;2023-08-30T00:11:57;13.15;;;10.18;;
82526;SDS011;72188;41.974;21.456;2023-08-30T00:14:23;15.05;;;10.48;;
82526;SDS011;72188;41.974;21.456;2023-08-30T00:16:49;14.80;;;9.82;;
82526;SDS011;72188;41.974;21.456;2023-08-30T00:19:15;17.60;;;10.45;;
82526;SDS011;72188;41.974;21.456;2023-08-30T00:21:42;14.88;;;9.00;;
82526;SDS011;72188;41.974;21.456;2023-08-30T00:24:09;12.65;;;9.27;;
82526;SDS011;72188;41.974;21.456;2023-08-30T00:26:35;15.60;;;10.15;;
82526;SDS011;72188;41.974;21.456;2023-08-30T00:29:01;15.40;;;9.63;;
82526;SDS011;72188;41.974;21.456;2023-08-30T00:31:27;14.88;;;9.52;;
82526;SDS011;72188;41.974;21.456;2023-08-30T00:33:53;15.65;;;10.23;;
82526;SDS011;72188;41.974;21.456;2023-08-30T00:36:19;12.98;;;10.48;;
82526;SDS011;72188;41.974;21.456;2023-08-30T00:38:47;14.10;;;9.95;;
82526;SDS011;72188;41.974;21.456;2023-08-30T00:41:13;13.10;;;9.65;;
82526;SDS011;72188;41.974;21.456;2023-08-30T00:43:39;16.30;;;10.35;;
82526;SDS011;72188;41.974;21.456;2023-08-30T00:46:05;15.88;;;11.38;;
82526;SDS011;72188;41.974;21.456;2023-08-30T00:48:31;15.30;;;10.70;;
82526;SDS011;72188;41.974;21.456;2023-08-30T00:50:58;16.08;;;10.52;;
82526;SDS011;72188;41.974;21.456;2023-08-30T00:53:24;15.07;;;9.90;;
82526;SDS011;72188;41.974;21.456;2023-08-30T00:55:50;16.63;;;10.60;;
82526;SDS011;72188;41.974;21.456;2023-08-30T00:58:16;15.85;;;11.55;;
82526;SDS011;72188;41.974;21.456;2023-08-30T01:00:42;15.48;;;10.70;;
82526;SDS011;72188;41.974;21.456;2023-08-30T01:03:09;14.10;;;10.52;;
82526;SDS011;72188;41.974;21.456;2023-08-30T01:05:35;16.08;;;10.77;;
82526;SDS011;72188;41.974;21.456;2023-08-30T01:08:01;12.63;;;10.32;;
82526;SDS011;72188;41.974;21.456;2023-08-30T01:10:35;15.77;;;10.90;;
82526;SDS011;72188;41.974;21.456;2023-08-30T01:13:06;18.23;;;11.18;;
82526;SDS011;72188;41.974;21.456;2023-08-30T01:15:34;16.15;;;10.82;;
82526;SDS011;72188;41.974;21.456;2023-08-30T01:20:29;15.88;;;10.18;;
82526;SDS011;72188;41.974;21.456;2023-08-30T01:28:06;18.60;;;10.45;;
82526;SDS011;72188;41.974;21.456;2023-08-30T01:30:34;15.98;;;10.52;;
82526;SDS011;72188;41.974;21.456;2023-08-30T01:33:02;16.92;;;11.10;;
82526;SDS011;72188;41.974;21.456;2023-08-30T01:37:58;15.93;;;10.73;;
82526;SDS011;72188;41.974;21.456;2023-08-30T01:42:50;19.13;;;10.57;;
82526;SDS011;72188;41.974;21.456;2023-08-30T01:45:17;17.17;;;11.27;;
82526;SDS011;72188;41.974;21.456;2023-08-30T01:47:44;21.15;;;12.55;;
82526;SDS011;72188;41.974;21.456;2023-08-30T01:50:11;13.60;;;9.90;;
82526;SDS011;72188;41.974;21.456;2023-08-30T01:52:37;16.58;;;11.00;;
82526;SDS011;72188;41.974;21.456;2023-08-30T01:55:04;17.90;;;11.38;;
82526;SDS011;72188;41.974;21.456;2023-08-30T01:57:31;15.98;;;10.15;;
82526;SDS011;72188;41.974;21.456;2023-08-30T01:59:57;16.83;;;10.70;;
82526;SDS011;72188;41.974;21.456;2023-08-30T02:02:23;16.80;;;11.70;;
82526;SDS011;72188;41.974;21.456;2023-08-30T02:04:49;19.13;;;11.65;;
82526;SDS011;72188;41.974;21.456;2023-08-30T02:07:23;17.52;;;11.57;;
82526;SDS011;72188;41.974;21.456;2023-08-30T02:12:22;18.98;;;11.18;;
82526;SDS011;72188;41.974;21.456;2023-08-30T02:14:50;18.00;;;11.52;;
82526;SDS011;72188;41.974;21.456;2023-08-30T02:17:17;19.48;;;12.73;;
82526;SDS011;72188;41.974;21.456;2023-08-30T02:19:44;21.73;;;12.68;;
82526;SDS011;72188;41.974;21.456;2023-08-30T02:22:10;19.23;;;12.80;;
82526;SDS011;72188;41.974;21.456;2023-08-30T02:24:36;18.50;;;12.18;;
82526;SDS011;72188;41.974;21.456;2023-08-30T02:27:02;19.58;;;13.60;;
82526;SDS011;72188;41.974;21.456;2023-08-30T02:29:28;18.33;;;13.43;;
82526;SDS011;72188;41.974;21.456;2023-08-30T02:31:54;18.00;;;13.23;;
82526;SDS011;72188;41.974;21.456;2023-08-30T02:34:20;25.80;;;14.68;;
82526;SDS011;72188;41.974;21.456;2023-08-30T02:36:46;22.08;;;13.48;;
82526;SDS011;72188;41.974;21.456;2023-08-30T02:39:13;21.95;;;13.68;;
82526;SDS011;72188;41.974;21.456;2023-08-30T02:41:40;18.02;;;13.82;;
82526;SDS011;72188;41.974;21.456;2023-08-30T02:44:10;22.40;;;14.43;;
82526;SDS011;72188;41.974;21.456;2023-08-30T02:46:37;20.58;;;13.50;;
82526;SDS011;72188;41.974;21.456;2023-08-30T02:49:03;18.95;;;12.43;;
82526;SDS011;72188;41.974;21.456;2023-08-30T02:51:30;22.77;;;13.85;;
82526;SDS011;72188;41.974;21.456;2023-08-30T02:53:56;22.65;;;14.10;;
82526;SDS011;72188;41.974;21.456;2023-08-30T02:56:22;22.38;;;14.43;;
82526;SDS011;72188;41.974;21.456;2023-08-30T02:58:48;18.90;;;13.15;;
82526;SDS011;72188;41.974;21.456;2023-08-30T03:01:14;21.55;;;14.40;;
82526;SDS011;72188;41.974;21.456;2023-08-30T03:03:40;25.45;;;13.95;;
82526;SDS011;72188;41.974;21.456;2023-08-30T03:06:06;20.33;;;13.80;;
82526;SDS011;72188;41.974;21.456;2023-08-30T03:08:33;22.70;;;14.95;;
82526;SDS011;72188;41.974;21.456;2023-08-30T03:11:11;21.92;;;13.52;;
82526;SDS011;72188;41.974;21.456;2023-08-30T03:13:38;23.98;;;13.95;;
82526;SDS011;72188;41.974;21.456;2023-08-30T03:16:13;25.33;;;14.32;;
82526;SDS011;72188;41.974;21.456;2023-08-30T03:18:39;26.85;;;14.25;;
82526;SDS011;72188;41.974;21.456;2023-08-30T03:21:06;23.80;;;14.75;;
82526;SDS011;72188;41.974;21.456;2023-08-30T03:23:33;22.58;;;13.02;;
82526;SDS011;72188;41.974;21.456;2023-08-30T03:26:06;23.25;;;14.60;;
82526;SDS011;72188;41.974;21.456;2023-08-30T03:28:33;24.23;;;13.15;;
82526;SDS011;72188;41.974;21.456;2023-08-30T03:30:59;21.25;;;13.80;;
82526;SDS011;72188;41.974;21.456;2023-08-30T03:33:25;22.70;;;14.20;;
82526;SDS011;72188;41.974;21.456;2023-08-30T03:35:51;22.40;;;14.30;;
82526;SDS011;72188;41.974;21.456;2023-08-30T03:38:17;23.60;;;14.50;;
82526;SDS011;72188;41.974;21.456;2023-08-30T03:40:44;25.15;;;14.35;;
82526;SDS011;72188;41.974;21.456;2023-08-30T03:43:10;19.17;;;13.07;;
82526;SDS011;72188;41.974;21.456;2023-08-30T03:45:36;21.52;;;12.80;;
82526;SDS011;72188;41.974;21.456;2023-08-30T03:48:03;17.85;;;11.88;;
82526;SDS011;72188;41.974;21.456;2023-08-30T03:50:29;22.80;;;13.40;;
82526;SDS011;72188;41.974;21.456;2023-08-30T03:52:55;18.08;;;12.82;;
82526;SDS011;72188;41.974;21.456;2023-08-30T03:55:21;20.80;;;12.75;;
82526;SDS011;72188;41.974;21.456;2023-08-30T03:57:48;21.08;;;13.05;;
82526;SDS011;72188;41.974;21.456;2023-08-30T04:00:14;19.15;;;12.60;;
82526;SDS011;72188;41.974;21.456;2023-08-30T04:02:40;25.38;;;15.75;;
82526;SDS011;72188;41.974;21.456;2023-08-30T04:05:06;26.63;;;13.15;;
82526;SDS011;72188;41.974;21.456;2023-08-30T04:07:35;23.02;;;13.23;;
82526;SDS011;72188;41.974;21.456;2023-08-30T04:10:01;21.65;;;13.05;;
82526;SDS011;72188;41.974;21.456;2023-08-30T04:12:31;20.50;;;12.45;;
82526;SDS011;72188;41.974;21.456;2023-08-30T04:14:57;23.58;;;12.38;;
82526;SDS011;72188;41.974;21.456;2023-08-30T04:17:23;29.90;;;12.45;;
82526;SDS011;72188;41.974;21.456;2023-08-30T04:19:52;24.63;;;13.23;;
82526;SDS011;72188;41.974;21.456;2023-08-30T04:22:18;27.08;;;12.48;;
82526;SDS011;72188;41.974;21.456;2023-08-30T04:24:45;28.20;;;13.27;;
82526;SDS011;72188;41.974;21.456;2023-08-30T04:27:11;33.58;;;13.73;;
82526;SDS011;72188;41.974;21.456;2023-08-30T04:29:37;20.13;;;12.30;;
82526;SDS011;72188;41.974;21.456;2023-08-30T04:32:04;30.73;;;13.82;;
82526;SDS011;72188;41.974;21.456;2023-08-30T04:34:30;27.63;;;13.85;;
82526;SDS011;72188;41.974;21.456;2023-08-30T04:36:56;24.95;;;14.32;;
82526;SDS011;72188;41.974;21.456;2023-08-30T04:39:22;20.67;;;14.23;;
82526;SDS011;72188;41.974;21.456;2023-08-30T04:41:48;35.30;;;13.05;;
82526;SDS011;72188;41.974;21.456;2023-08-30T04:44:15;29.20;;;12.80;;
82526;SDS011;72188;41.974;21.456;2023-08-30T04:46:42;25.73;;;12.98;;
82526;SDS011;72188;41.974;21.456;2023-08-30T04:49:08;22.85;;;13.80;;
82526;SDS011;72188;41.974;21.456;2023-08-30T04:51:34;26.33;;;13.15;;
82526;SDS011;72188;41.974;21.456;2023-08-30T04:54:00;19.65;;;12.50;;
82526;SDS011;72188;41.974;21.456;2023-08-30T04:56:26;23.33;;;12.63;;
82526;SDS011;72188;41.974;21.456;2023-08-30T04:58:52;20.77;;;13.27;;
82526;SDS011;72188;41.974;21.456;2023-08-30T05:01:18;21.35;;;12.50;;
82526;SDS011;72188;41.974;21.456;2023-08-30T05:03:44;24.35;;;11.80;;
82526;SDS011;72188;41.974;21.456;2023-08-30T05:06:10;17.98;;;10.43;;
82526;SDS011;72188;41.974;21.456;2023-08-30T05:08:41;23.15;;;11.57;;
82526;SDS011;72188;41.974;21.456;2023-08-30T05:11:07;24.08;;;12.70;;
82526;SDS011;72188;41.974;21.456;2023-08-30T05:13:33;29.75;;;14.30;;
82526;SDS011;72188;41.974;21.456;2023-08-30T05:15:59;18.55;;;12.73;;
82526;SDS011;72188;41.974;21.456;2023-08-30T05:18:25;20.30;;;13.13;;
82526;SDS011;72188;41.974;21.456;2023-08-30T05:20:51;21.88;;;13.10;;
82526;SDS011;72188;41.974;21.456;2023-08-30T05:23:17;19.77;;;13.85;;
82526;SDS011;72188;41.974;21.456;2023-08-30T05:25:43;18.98;;;13.35;;
82526;SDS011;72188;41.974;21.456;2023-08-30T05:28:09;21.95;;;13.27;;
82526;SDS011;72188;41.974;21.456;2023-08-30T05:30:35;22.10;;;13.93;;
82526;SDS011;72188;41.974;21.456;2023-08-30T05:33:01;20.20;;;12.98;;
82526;SDS011;72188;41.974;21.456;2023-08-30T05:35:28;22.88;;;14.32;;
82526;SDS011;72188;41.974;21.456;2023-08-30T05:37:54;30.00;;;14.13;;
82526;SDS011;72188;41.974;21.456;2023-08-30T05:40:20;21.58;;;14.13;;
82526;SDS011;72188;41.974;21.456;2023-08-30T05:42:46;23.80;;;15.18;;
82526;SDS011;72188;41.974;21.456;2023-08-30T05:45:12;24.13;;;13.60;;
82526;SDS011;72188;41.974;21.456;2023-08-30T05:47:38;16.65;;;12.40;;
82526;SDS011;72188;41.974;21.456;2023-08-30T05:50:04;20.15;;;13.75;;
82526;SDS011;72188;41.974;21.456;2023-08-30T05:52:30;21.60;;;13.40;;
82526;SDS011;72188;41.974;21.456;2023-08-30T05:54:56;19.73;;;12.82;;
82526;SDS011;72188;41.974;21.456;2023-08-30T05:57:22;19.58;;;12.00;;
82526;SDS011;72188;41.974;21.456;2023-08-30T05:59:50;22.98;;;12.73;;
82526;SDS011;72188;41.974;21.456;2023-08-30T06:02:16;16.40;;;11.88;;
82526;SDS011;72188;41.974;21.456;2023-08-30T06:04:42;18.98;;;13.32;;
82526;SDS011;72188;41.974;21.456;2023-08-30T06:07:08;16.83;;;10.65;;
82526;SDS011;72188;41.974;21.456;2023-08-30T06:09:34;23.67;;;13.82;;
82526;SDS011;72188;41.974;21.456;2023-08-30T06:12:00;21.67;;;11.23;;
82526;SDS011;72188;41.974;21.456;2023-08-30T06:14:26;19.70;;;11.52;;
82526;SDS011;72188;41.974;21.456;2023-08-30T06:16:53;16.65;;;11.32;;
82526;SDS011;72188;41.974;21.456;2023-08-30T06:19:19;22.75;;;12.05;;
82526;SDS011;72188;41.974;21.456;2023-08-30T06:21:45;22.63;;;11.93;;
82526;SDS011;72188;41.974;21.456;2023-08-30T06:24:11;19.67;;;13.65;;
82526;SDS011;72188;41.974;21.456;2023-08-30T06:26:37;24.92;;;12.40;;
82526;SDS011;72188;41.974;21.456;2023-08-30T06:29:03;21.35;;;12.80;;
82526;SDS011;72188;41.974;21.456;2023-08-30T06:31:29;17.92;;;11.85;;
82526;SDS011;72188;41.974;21.456;2023-08-30T06:33:57;17.08;;;11.02;;
82526;SDS011;72188;41.974;21.456;2023-08-30T06:36:23;20.13;;;11.70;;
82526;SDS011;72188;41.974;21.456;2023-08-30T06:38:49;19.60;;;11.95;;
82526;SDS011;72188;41.974;21.456;2023-08-30T06:41:15;18.48;;;11.82;;
82526;SDS011;72188;41.974;21.456;2023-08-30T06:43:41;17.30;;;11.13;;
82526;SDS011;72188;41.974;21.456;2023-08-30T06:46:07;23.83;;;12.10;;
82526;SDS011;72188;41.974;21.456;2023-08-30T06:48:33;17.65;;;11.68;;
82526;SDS011;72188;41.974;21.456;2023-08-30T06:50:59;15.93;;;9.98;;
82526;SDS011;72188;41.974;21.456;2023-08-30T06:53:26;16.40;;;10.95;;
82526;SDS011;72188;41.974;21.456;2023-08-30T06:55:59;19.20;;;11.13;;
82526;SDS011;72188;41.974;21.456;2023-08-30T07:00:51;17.92;;;10.27;;
82526;SDS011;72188;41.974;21.456;2023-08-30T07:03:17;19.98;;;11.10;;
82526;SDS011;72188;41.974;21.456;2023-08-30T07:05:44;17.60;;;10.48;;
82526;SDS011;72188;41.974;21.456;2023-08-30T07:08:12;16.60;;;9.85;;
82526;SDS011;72188;41.974;21.456;2023-08-30T07:10:39;15.55;;;9.85;;
82526;SDS011;72188;41.974;21.456;2023-08-30T07:13:05;14.27;;;9.13;;
82526;SDS011;72188;41.974;21.456;2023-08-30T07:15:35;13.48;;;8.68;;
82526;SDS011;72188;41.974;21.456;2023-08-30T07:18:02;14.68;;;9.25;;
82526;SDS011;72188;41.974;21.456;2023-08-30T07:22:54;15.98;;;9.43;;
82526;SDS011;72188;41.974;21.456;2023-08-30T07:25:20;15.55;;;9.52;;
82526;SDS011;72188;41.974;21.456;2023-08-30T07:27:46;16.42;;;8.32;;
82526;SDS011;72188;41.974;21.456;2023-08-30T07:30:12;14.20;;;8.30;;
82526;SDS011;72188;41.974;21.456;2023-08-30T07:32:39;10.43;;;7.47;;
82526;SDS011;72188;41.974;21.456;2023-08-30T07:35:05;13.25;;;7.78;;
82526;SDS011;72188;41.974;21.456;2023-08-30T07:37:31;13.05;;;7.43;;
82526;SDS011;72188;41.974;21.456;2023-08-30T07:39:57;12.25;;;7.07;;
82526;SDS011;72188;41.974;21.456;2023-08-30T07:42:24;10.05;;;6.05;;
82526;SDS011;72188;41.974;21.456;2023-08-30T07:44:50;9.63;;;6.65;;
82526;SDS011;72188;41.974;21.456;2023-08-30T07:47:16;10.63;;;7.45;;
82526;SDS011;72188;41.974;21.456;2023-08-30T07:49:42;11.73;;;6.93;;
82526;SDS011;72188;41.974;21.456;2023-08-30T07:52:08;10.52;;;8.00;;
82526;SDS011;72188;41.974;21.456;2023-08-30T07:54:36;12.10;;;6.68;;
82526;SDS011;72188;41.974;21.456;2023-08-30T07:57:03;12.75;;;7.22;;
82526;SDS011;72188;41.974;21.456;2023-08-30T07:59:29;14.75;;;7.93;;
82526;SDS011;72188;41.974;21.456;2023-08-30T08:01:55;12.35;;;7.18;;
82526;SDS011;72188;41.974;21.456;2023-08-30T08:04:22;12.32;;;7.22;;
82526;SDS011;72188;41.974;21.456;2023-08-30T08:06:48;12.63;;;7.70;;
82526;SDS011;72188;41.974;21.456;2023-08-30T08:09:14;10.45;;;6.55;;
82526;SDS011;72188;41.974;21.456;2023-08-30T08:11:40;11.60;;;6.72;;
82526;SDS011;72188;41.974;21.456;2023-08-30T08:14:09;8.75;;;5.70;;
82526;SDS011;72188;41.974;21.456;2023-08-30T08:16:36;9.13;;;5.50;;
82526;SDS011;72188;41.974;21.456;2023-08-30T08:19:02;10.88;;;5.82;;
82526;SDS011;72188;41.974;21.456;2023-08-30T08:21:28;8.27;;;5.78;;
82526;SDS011;72188;41.974;21.456;2023-08-30T08:23:54;11.85;;;5.93;;
82526;SDS011;72188;41.974;21.456;2023-08-30T08:26:20;9.43;;;5.75;;
82526;SDS011;72188;41.974;21.456;2023-08-30T08:28:46;10.30;;;5.60;;
82526;SDS011;72188;41.974;21.456;2023-08-30T08:31:13;11.25;;;6.10;;
82526;SDS011;72188;41.974;21.456;2023-08-30T08:33:39;9.80;;;5.72;;
82526;SDS011;72188;41.974;21.456;2023-08-30T08:36:05;11.43;;;5.97;;
82526;SDS011;72188;41.974;21.456;2023-08-30T08:38:32;10.85;;;5.35;;
82526;SDS011;72188;41.974;21.456;2023-08-30T08:41:07;13.68;;;6.30;;
82526;SDS011;72188;41.974;21.456;2023-08-30T08:43:36;9.02;;;5.13;;
82526;SDS011;72188;41.974;21.456;2023-08-30T08:48:31;11.90;;;5.97;;
82526;SDS011;72188;41.974;21.456;2023-08-30T08:50:59;10.95;;;5.75;;
82526;SDS011;72188;41.974;21.456;2023-08-30T08:53:26;15.77;;;8.35;;
82526;SDS011;72188;41.974;21.456;2023-08-30T08:55:52;7.93;;;4.05;;
82526;SDS011;72188;41.974;21.456;2023-08-30T08:58:19;13.25;;;5.90;;
82526;SDS011;72188;41.974;21.456;2023-08-30T09:00:45;7.88;;;4.70;;
82526;SDS011;72188;41.974;21.456;2023-08-30T09:03:11;12.98;;;5.55;;
82526;SDS011;72188;41.974;21.456;2023-08-30T09:05:37;8.70;;;4.32;;
82526;SDS011;72188;41.974;21.456;2023-08-30T09:08:04;10.52;;;4.55;;
82526;SDS011;72188;41.974;21.456;2023-08-30T09:10:33;8.05;;;3.80;;
82526;SDS011;72188;41.974;21.456;2023-08-30T09:12:59;8.27;;;4.15;;
82526;SDS011;72188;41.974;21.456;2023-08-30T09:15:32;8.63;;;4.38;;
82526;SDS011;72188;41.974;21.456;2023-08-30T09:17:58;14.32;;;4.90;;
82526;SDS011;72188;41.974;21.456;2023-08-30T09:20:25;6.75;;;4.43;;
82526;SDS011;72188;41.974;21.456;2023-08-30T09:22:51;7.53;;;4.15;;
82526;SDS011;72188;41.974;21.456;2023-08-30T09:25:24;8.27;;;3.95;;
82526;SDS011;72188;41.974;21.456;2023-08-30T09:27:50;7.50;;;4.20;;
82526;SDS011;72188;41.974;21.456;2023-08-30T09:30:22;6.10;;;3.80;;
82526;SDS011;72188;41.974;21.456;2023-08-30T09:32:49;6.82;;;4.13;;
82526;SDS011;72188;41.974;21.456;2023-08-30T09:35:15;6.68;;;3.92;;
82526;SDS011;72188;41.974;21.456;2023-08-30T09:37:41;7.85;;;3.72;;
82526;SDS011;72188;41.974;21.456;2023-08-30T09:40:09;8.27;;;3.55;;
82526;SDS011;72188;41.974;21.456;2023-08-30T09:42:40;7.45;;;3.53;;
82526;SDS011;72188;41.974;21.456;2023-08-30T09:45:16;5.60;;;3.35;;
82526;SDS011;72188;41.974;21.456;2023-08-30T09:47:46;6.20;;;3.60;;
82526;SDS011;72188;41.974;21.456;2023-08-30T09:50:12;4.93;;;2.92;;
82526;SDS011;72188;41.974;21.456;2023-08-30T09:52:39;8.98;;;3.63;;
82526;SDS011;72188;41.974;21.456;2023-08-30T09:55:05;8.73;;;3.13;;
82526;SDS011;72188;41.974;21.456;2023-08-30T09:57:31;6.13;;;3.33;;
82526;SDS011;72188;41.974;21.456;2023-08-30T09:59:57;8.02;;;3.67;;
82526;SDS011;72188;41.974;21.456;2023-08-30T10:02:25;8.40;;;3.55;;
82526;SDS011;72188;41.974;21.456;2023-08-30T10:04:51;10.25;;;4.20;;
82526;SDS011;72188;41.974;21.456;2023-08-30T10:09:43;12.20;;;3.55;;
82526;SDS011;72188;41.974;21.456;2023-08-30T10:12:09;17.08;;;4.05;;
82526;SDS011;72188;41.974;21.456;2023-08-30T10:14:36;7.22;;;3.58;;
82526;SDS011;72188;41.974;21.456;2023-08-30T10:17:03;8.63;;;3.65;;
82526;SDS011;72188;41.974;21.456;2023-08-30T10:19:33;6.97;;;3.90;;
82526;SDS011;72188;41.974;21.456;2023-08-30T10:24:27;8.43;;;4.22;;
82526;SDS011;72188;41.974;21.456;2023-08-30T10:29:21;7.75;;;4.20;;
82526;SDS011;72188;41.974;21.456;2023-08-30T10:31:48;6.53;;;4.07;;
82526;SDS011;72188;41.974;21.456;2023-08-30T10:34:16;7.75;;;4.03;;
82526;SDS011;72188;41.974;21.456;2023-08-30T10:39:12;9.23;;;3.92;;
82526;SDS011;72188;41.974;21.456;2023-08-30T10:41:53;12.70;;;4.03;;
82526;SDS011;72188;41.974;21.456;2023-08-30T10:44:21;9.93;;;4.15;;
82526;SDS011;72188;41.974;21.456;2023-08-30T10:46:52;6.75;;;3.78;;
82526;SDS011;72188;41.974;21.456;2023-08-30T10:49:18;8.02;;;3.90;;
82526;SDS011;72188;41.974;21.456;2023-08-30T10:51:44;8.18;;;3.83;;
82526;SDS011;72188;41.974;21.456;2023-08-30T10:54:15;9.95;;;4.75;;
82526;SDS011;72188;41.974;21.456;2023-08-30T10:56:48;9.40;;;4.43;;
82526;SDS011;72188;41.974;21.456;2023-08-30T10:59:21;8.05;;;4.00;;
82526;SDS011;72188;41.974;21.456;2023-08-30T11:01:49;6.30;;;3.83;;
82526;SDS011;72188;41.974;21.456;2023-08-30T11:07:27;8.85;;;4.00;;
82526;SDS011;72188;41.974;21.456;2023-08-30T11:09:53;7.72;;;4.00;;
82526;SDS011;72188;41.974;21.456;2023-08-30T11:12:19;10.07;;;4.00;;
82526;SDS011;72188;41.974;21.456;2023-08-30T11:14:51;7.63;;;4.20;;
82526;SDS011;72188;41.974;21.456;2023-08-30T11:17:17;11.50;;;6.65;;
82526;SDS011;72188;41.974;21.456;2023-08-30T11:19:44;17.08;;;5.07;;
82526;SDS011;72188;41.974;21.456;2023-08-30T11:22:11;15.82;;;10.43;;
82526;SDS011;72188;41.974;21.456;2023-08-30T11:24:39;9.85;;;4.55;;
82526;SDS011;72188;41.974;21.456;2023-08-30T11:27:05;10.18;;;4.57;;
82526;SDS011;72188;41.974;21.456;2023-08-30T11:29:31;8.32;;;4.22;;
82526;SDS011;72188;41.974;21.456;2023-08-30T11:31:57;9.93;;;3.70;;
82526;SDS011;72188;41.974;21.456;2023-08-30T11:34:23;8.27;;;3.80;;
82526;SDS011;72188;41.974;21.456;2023-08-30T11:36:50;14.90;;;6.75;;
82526;SDS011;72188;41.974;21.456;2023-08-30T11:39:16;17.17;;;9.90;;
82526;SDS011;72188;41.974;21.456;2023-08-30T11:44:08;9.02;;;4.07;;
82526;SDS011;72188;41.974;21.456;2023-08-30T11:46:35;5.82;;;3.50;;
82526;SDS011;72188;41.974;21.456;2023-08-30T11:49:01;5.70;;;3.05;;
82526;SDS011;72188;41.974;21.456;2023-08-30T11:51:28;8.27;;;4.00;;
82526;SDS011;72188;41.974;21.456;2023-08-30T11:53:54;10.05;;;4.15;;
82526;SDS011;72188;41.974;21.456;2023-08-30T11:56:22;7.93;;;3.75;;
82526;SDS011;72188;41.974;21.456;2023-08-30T11:58:48;5.68;;;3.58;;
82526;SDS011;72188;41.974;21.456;2023-08-30T12:01:16;8.02;;;4.00;;
82526;SDS011;72188;41.974;21.456;2023-08-30T12:03:44;6.35;;;3.38;;
82526;SDS011;72188;41.974;21.456;2023-08-30T12:06:15;6.68;;;2.83;;
82526;SDS011;72188;41.974;21.456;2023-08-30T12:08:41;7.00;;;3.13;;
82526;SDS011;72188;41.974;21.456;2023-08-30T12:11:17;5.90;;;2.63;;
82526;SDS011;72188;41.974;21.456;2023-08-30T12:13:44;9.43;;;3.40;;
82526;SDS011;72188;41.974;21.456;2023-08-30T12:16:14;6.65;;;2.55;;
82526;SDS011;72188;41.974;21.456;2023-08-30T12:18:42;4.78;;;2.63;;
82526;SDS011;72188;41.974;21.456;2023-08-30T12:21:08;6.50;;;3.17;;
82526;SDS011;72188;41.974;21.456;2023-08-30T12:23:34;6.95;;;2.60;;
82526;SDS011;72188;41.974;21.456;2023-08-30T12:26:00;8.88;;;3.13;;
82526;SDS011;72188;41.974;21.456;2023-08-30T12:28:29;6.93;;;3.58;;
82526;SDS011;72188;41.974;21.456;2023-08-30T12:33:21;8.07;;;3.67;;
82526;SDS011;72188;41.974;21.456;2023-08-30T12:35:47;6.95;;;4.28;;
82526;SDS011;72188;41.974;21.456;2023-08-30T12:38:16;11.35;;;5.32;;
82526;SDS011;72188;41.974;21.456;2023-08-30T12:40:46;9.18;;;4.18;;
82526;SDS011;72188;41.974;21.456;2023-08-30T12:43:13;5.30;;;3.08;;
82526;SDS011;72188;41.974;21.456;2023-08-30T12:48:06;7.13;;;2.92;;
82526;SDS011;72188;41.974;21.456;2023-08-30T12:50:32;7.45;;;2.90;;
82526;SDS011;72188;41.974;21.456;2023-08-30T12:52:58;5.20;;;2.83;;
82526;SDS011;72188;41.974;21.456;2023-08-30T12:55:24;8.38;;;3.20;;
82526;SDS011;72188;41.974;21.456;2023-08-30T12:57:50;8.55;;;2.90;;
82526;SDS011;72188;41.974;21.456;2023-08-30T13:00:16;16.30;;;6.82;;
82526;SDS011;72188;41.974;21.456;2023-08-30T13:02:42;10.15;;;3.60;;
82526;SDS011;72188;41.974;21.456;2023-08-30T13:05:08;7.10;;;3.72;;
82526;SDS011;72188;41.974;21.456;2023-08-30T13:07:34;7.70;;;3.58;;
82526;SDS011;72188;41.974;21.456;2023-08-30T13:10:01;5.45;;;2.95;;
82526;SDS011;72188;41.974;21.456;2023-08-30T13:12:27;5.75;;;3.10;;
82526;SDS011;72188;41.974;21.456;2023-08-30T13:14:53;7.70;;;2.97;;
82526;SDS011;72188;41.974;21.456;2023-08-30T13:17:19;6.78;;;3.17;;
82526;SDS011;72188;41.974;21.456;2023-08-30T13:19:45;7.00;;;3.42;;
82526;SDS011;72188;41.974;21.456;2023-08-30T13:22:11;9.13;;;3.42;;
82526;SDS011;72188;41.974;21.456;2023-08-30T13:24:37;7.50;;;3.10;;
82526;SDS011;72188;41.974;21.456;2023-08-30T13:27:03;9.63;;;3.15;;
82526;SDS011;72188;41.974;21.456;2023-08-30T13:29:29;5.32;;;2.70;;
82526;SDS011;72188;41.974;21.456;2023-08-30T13:31:55;7.07;;;3.15;;
82526;SDS011;72188;41.974;21.456;2023-08-30T13:34:26;4.65;;;2.58;;
82526;SDS011;72188;41.974;21.456;2023-08-30T13:36:52;5.10;;;3.10;;
82526;SDS011;72188;41.974;21.456;2023-08-30T13:39:18;6.43;;;3.20;;
82526;SDS011;72188;41.974;21.456;2023-08-30T13:41:47;6.95;;;3.17;;
82526;SDS011;72188;41.974;21.456;2023-08-30T13:44:14;6.43;;;2.50;;
82526;SDS011;72188;41.974;21.456;2023-08-30T13:46:40;6.13;;;3.47;;
82526;SDS011;72188;41.974;21.456;2023-08-30T13:49:06;8.32;;;3.63;;
82526;SDS011;72188;41.974;21.456;2023-08-30T13:51:32;10.43;;;3.80;;
82526;SDS011;72188;41.974;21.456;2023-08-30T13:53:58;5.53;;;2.85;;
82526;SDS011;72188;41.974;21.456;2023-08-30T13:56:24;6.03;;;2.63;;
82526;SDS011;72188;41.974;21.456;2023-08-30T13:58:50;6.15;;;3.00;;
82526;SDS011;72188;41.974;21.456;2023-08-30T14:01:16;6.80;;;3.20;;
82526;SDS011;72188;41.974;21.456;2023-08-30T14:03:43;5.78;;;3.00;;
82526;SDS011;72188;41.974;21.456;2023-08-30T14:06:09;10.48;;;3.03;;
82526;SDS011;72188;41.974;21.456;2023-08-30T14:08:35;5.40;;;3.05;;
82526;SDS011;72188;41.974;21.456;2023-08-30T14:11:01;7.60;;;2.80;;
82526;SDS011;72188;41.974;21.456;2023-08-30T14:13:28;5.75;;;3.08;;
82526;SDS011;72188;41.974;21.456;2023-08-30T14:15:58;6.93;;;2.72;;
82526;SDS011;72188;41.974;21.456;2023-08-30T14:18:25;6.90;;;3.17;;
82526;SDS011;72188;41.974;21.456;2023-08-30T14:20:51;13.80;;;7.90;;
82526;SDS011;72188;41.974;21.456;2023-08-30T14:23:21;6.68;;;2.78;;
82526;SDS011;72188;41.974;21.456;2023-08-30T14:25:54;9.48;;;3.05;;
82526;SDS011;72188;41.974;21.456;2023-08-30T14:28:20;5.72;;;2.90;;
82526;SDS011;72188;41.974;21.456;2023-08-30T14:30:46;17.73;;;10.85;;
82526;SDS011;72188;41.974;21.456;2023-08-30T14:33:12;7.63;;;3.38;;
82526;SDS011;72188;41.974;21.456;2023-08-30T14:35:44;6.80;;;2.78;;
82526;SDS011;72188;41.974;21.456;2023-08-30T14:38:10;25.55;;;18.92;;
82526;SDS011;72188;41.974;21.456;2023-08-30T14:40:36;10.02;;;4.25;;
82526;SDS011;72188;41.974;21.456;2023-08-30T14:43:05;7.30;;;5.15;;
82526;SDS011;72188;41.974;21.456;2023-08-30T14:45:31;5.38;;;3.15;;
82526;SDS011;72188;41.974;21.456;2023-08-30T14:47:57;7.95;;;3.25;;
82526;SDS011;72188;41.974;21.456;2023-08-30T14:50:24;8.00;;;3.63;;
82526;SDS011;72188;41.974;21.456;2023-08-30T14:52:50;8.60;;;3.80;;
82526;SDS011;72188;41.974;21.456;2023-08-30T14:55:20;11.77;;;6.03;;
82526;SDS011;72188;41.974;21.456;2023-08-30T14:57:46;15.80;;;5.40;;
82526;SDS011;72188;41.974;21.456;2023-08-30T15:00:12;17.10;;;6.15;;
82526;SDS011;72188;41.974;21.456;2023-08-30T15:02:38;11.98;;;5.10;;